HOB weather

Dos Bocas Heliport
Paraiso, Tabasco, Mexico

Public forecast

Using degrees Celsius for public forecast. Weather courtesy of forecast.io.

METAR (pilot weather report)

Closest report is Carlos Rovirosa Pérez International Airport, 33.9 nm (62.8 km) SE. Retrieved 2019/06/17 20:44 UTC (1 hour ago):

MMVA 172044Z 00000KT 7SM SCT016 SCT200 34/24 A2979 RMK SLP089 57016 907 8/108

TAF (pilot weather forecast)

Closest forecast is Carlos Rovirosa Pérez International Airport, 33.9 nm (62.8 km) SE. Retrieved 2019/06/17 18:45 UTC (3 hours ago):

TAF MMVA 171642Z 1718/1818 06010KT P6SM SCT015 BKN200 TEMPO 1800/1804 SCT015CB FM180600 09010KT P6SM SKC FM181200 12010KT 5SM HZ SCT015 BKN200